createdAt,value
2022-09-28T00:00:42.374Z,23.04
2022-09-28T00:01:42.698Z,23.02
2022-09-28T00:02:42.955Z,23.04
2022-09-28T00:03:43.152Z,23.04
2022-09-28T00:04:43.395Z,23.05
2022-09-28T00:05:43.618Z,23.04
2022-09-28T00:06:43.876Z,23.04
2022-09-28T00:07:44.103Z,23.05
2022-09-28T00:08:44.339Z,23.05
2022-09-28T00:09:44.592Z,23.04
2022-09-28T00:10:44.837Z,23.04
2022-09-28T00:11:45.081Z,23.04
2022-09-28T00:12:45.320Z,23.04
2022-09-28T00:13:45.564Z,23.05
2022-09-28T00:14:45.846Z,23.05
2022-09-28T00:15:46.082Z,23.05
2022-09-28T00:16:46.345Z,23.05
2022-09-28T00:17:46.581Z,23.05
2022-09-28T00:18:46.813Z,23.05
2022-09-28T00:19:47.052Z,23.05
2022-09-28T00:20:47.293Z,23.04
2022-09-28T00:21:47.523Z,23.05
2022-09-28T00:22:47.764Z,23.05
2022-09-28T00:23:48.056Z,23.05
2022-09-28T00:24:48.296Z,23.05
2022-09-28T00:25:48.535Z,23.04
2022-09-28T00:26:48.773Z,23.05
2022-09-28T00:27:49.005Z,23.04
2022-09-28T00:28:49.245Z,23.04
2022-09-28T00:29:49.487Z,23.05
2022-09-28T00:30:49.724Z,23.04
2022-09-28T00:31:49.983Z,23.05
2022-09-28T00:32:50.237Z,23.05
2022-09-28T00:33:50.481Z,23.04
2022-09-28T00:34:50.717Z,23.05
2022-09-28T00:35:50.967Z,23.04
2022-09-28T00:36:51.209Z,23.05
2022-09-28T00:37:51.455Z,23.04
2022-09-28T00:38:51.689Z,23.05
2022-09-28T00:39:51.929Z,23.04
2022-09-28T00:40:52.215Z,23.05
2022-09-28T00:41:52.418Z,23.04
2022-09-28T00:42:52.679Z,23.05
2022-09-28T00:43:52.959Z,23.04
2022-09-28T00:44:53.201Z,23.05
2022-09-28T00:45:53.460Z,23.04
2022-09-28T00:46:53.720Z,23.05
2022-09-28T00:47:53.960Z,23.05
2022-09-28T00:48:54.201Z,23.05
2022-09-28T00:49:54.441Z,23.05
2022-09-28T00:50:54.681Z,23.05
2022-09-28T00:51:54.920Z,23.05
2022-09-28T00:52:55.161Z,23.07
2022-09-28T00:53:55.918Z,23.05
2022-09-28T00:54:55.684Z,23.05
2022-09-28T00:55:55.951Z,23.05
2022-09-28T00:56:56.173Z,23.05
2022-09-28T00:57:56.413Z,23.05
2022-09-28T00:58:56.659Z,23.05
2022-09-28T00:59:56.900Z,23.05
2022-09-28T01:00:57.184Z,23.05
2022-09-28T01:01:57.474Z,23.07
2022-09-28T01:02:57.710Z,23.05
2022-09-28T01:03:57.968Z,23.05
2022-09-28T01:04:58.240Z,23.07
2022-09-28T01:05:58.465Z,23.05
2022-09-28T01:06:58.705Z,23.05
2022-09-28T01:07:58.939Z,23.07
2022-09-28T01:08:59.201Z,23.05
2022-09-28T01:09:59.424Z,23.04
2022-09-28T01:10:59.660Z,23.05
2022-09-28T01:11:59.889Z,23.05
2022-09-28T01:13:00.136Z,23.05
2022-09-28T01:14:00.376Z,23.05
2022-09-28T01:15:00.628Z,23.07
2022-09-28T01:16:00.924Z,23.05
2022-09-28T01:17:01.158Z,23.05
2022-09-28T01:18:01.389Z,23.05
2022-09-28T01:19:01.630Z,23.05
2022-09-28T01:20:01.872Z,23.05
2022-09-28T01:21:02.110Z,23.05
2022-09-28T01:22:02.351Z,23.04
2022-09-28T01:23:02.581Z,23.05
2022-09-28T01:24:02.821Z,23.05
2022-09-28T01:25:03.062Z,23.04
2022-09-28T01:26:03.302Z,23.04
2022-09-28T01:27:03.542Z,23.05
2022-09-28T01:28:03.782Z,23.05
2022-09-28T01:29:04.025Z,23.05
2022-09-28T01:30:04.276Z,23.05
2022-09-28T01:31:04.512Z,23.05
2022-09-28T01:32:04.744Z,23.05
2022-09-28T01:33:04.985Z,23.04
2022-09-28T01:34:05.242Z,23.05
2022-09-28T01:35:05.482Z,23.05
2022-09-28T01:36:05.715Z,23.04
2022-09-28T01:37:05.953Z,23.05
2022-09-28T01:38:06.196Z,23.07
2022-09-28T01:39:06.436Z,23.05
2022-09-28T01:40:06.680Z,23.05
2022-09-28T01:41:06.943Z,23.04
2022-09-28T01:42:07.171Z,23.04
2022-09-28T01:43:07.418Z,23.05
2022-09-28T01:44:07.647Z,23.04
2022-09-28T01:45:07.891Z,23.05
2022-09-28T01:46:08.197Z,23.05
2022-09-28T01:47:08.446Z,23.05
2022-09-28T01:48:08.682Z,23.05
2022-09-28T01:49:08.937Z,23.05
2022-09-28T01:50:09.169Z,23.05
2022-09-28T01:51:09.400Z,23.05
2022-09-28T01:52:09.649Z,23.05
2022-09-28T01:53:09.890Z,23.05
2022-09-28T01:54:10.131Z,23.05
2022-09-28T01:55:10.362Z,23.04
2022-09-28T01:56:10.609Z,23.05
2022-09-28T01:57:10.842Z,23.05
2022-09-28T01:58:11.082Z,23.04
2022-09-28T01:59:11.323Z,23.04
2022-09-28T02:00:11.562Z,23.05
2022-09-28T02:01:11.841Z,23.04
2022-09-28T02:02:12.141Z,23.05
2022-09-28T02:03:12.383Z,23.05
2022-09-28T02:04:12.630Z,23.05
2022-09-28T02:05:12.866Z,23.05
2022-09-28T02:06:13.112Z,23.04
2022-09-28T02:07:13.345Z,23.04
2022-09-28T02:08:13.634Z,23.05
2022-09-28T02:09:13.958Z,23.04
2022-09-28T02:10:14.135Z,23.04
2022-09-28T02:11:14.369Z,23.04
2022-09-28T02:12:14.606Z,23.05
2022-09-28T02:13:14.886Z,23.04
2022-09-28T02:14:15.125Z,23.05
2022-09-28T02:15:15.357Z,23.04
2022-09-28T02:16:15.646Z,23.05
2022-09-28T02:17:15.887Z,23.04
2022-09-28T02:18:16.129Z,23.04
2022-09-28T02:19:16.539Z,23.04
2022-09-28T02:20:16.676Z,23.04
2022-09-28T02:21:16.908Z,23.04
2022-09-28T02:22:17.149Z,23.05
2022-09-28T02:23:17.405Z,23.05
2022-09-28T02:24:21.383Z,23.04
2022-09-28T02:25:17.920Z,23.05
2022-09-28T02:26:18.161Z,23.04
2022-09-28T02:27:18.400Z,23.05
2022-09-28T02:28:18.641Z,23.04
2022-09-28T02:29:19.028Z,23.05
2022-09-28T02:30:19.160Z,23.05
2022-09-28T02:31:19.427Z,23.05
2022-09-28T02:32:19.662Z,23.05
2022-09-28T02:33:19.892Z,23.05
2022-09-28T02:34:20.141Z,23.05
2022-09-28T02:35:20.382Z,23.05
2022-09-28T02:36:20.623Z,23.07
2022-09-28T02:37:20.860Z,23.05
2022-09-28T02:38:21.103Z,23.05
2022-09-28T02:39:21.334Z,23.05
2022-09-28T02:40:21.644Z,23.05
2022-09-28T02:41:21.878Z,23.04
2022-09-28T02:42:22.115Z,23.05
2022-09-28T02:43:22.405Z,23.04
2022-09-28T02:44:22.667Z,23.04
2022-09-28T02:45:22.906Z,23.05
2022-09-28T02:46:23.145Z,23.05
2022-09-28T02:47:23.387Z,23.04
2022-09-28T02:48:36.152Z,23.04
2022-09-28T02:49:24.994Z,23.04
2022-09-28T02:50:24.108Z,23.04
2022-09-28T02:51:24.358Z,23.04
2022-09-28T02:52:24.597Z,23.04
2022-09-28T02:53:24.846Z,23.05
2022-09-28T02:54:25.088Z,23.04
2022-09-28T02:55:25.320Z,23.05
2022-09-28T02:56:25.559Z,23.04
2022-09-28T02:57:25.799Z,23.05
2022-09-28T02:58:26.040Z,23.05
2022-09-28T02:59:26.288Z,23.04
2022-09-28T03:00:26.529Z,23.05
2022-09-28T03:01:26.811Z,23.05
2022-09-28T03:02:27.129Z,23.05
2022-09-28T03:03:27.349Z,23.04
2022-09-28T03:04:27.588Z,23.05
2022-09-28T03:05:27.822Z,23.04
2022-09-28T03:06:28.065Z,23.05
2022-09-28T03:07:28.307Z,23.04
2022-09-28T03:08:28.545Z,23.04
2022-09-28T03:09:28.782Z,23.04
2022-09-28T03:10:29.013Z,23.04
2022-09-28T03:11:29.253Z,23.02
2022-09-28T03:12:29.525Z,23.04
2022-09-28T03:13:29.765Z,23.05
2022-09-28T03:14:30.004Z,23.04
2022-09-28T03:15:30.245Z,23.04
2022-09-28T03:16:30.574Z,23.05
2022-09-28T03:17:30.776Z,23.05
2022-09-28T03:18:31.030Z,23.05
2022-09-28T03:19:31.296Z,23.05
2022-09-28T03:20:31.537Z,23.04
2022-09-28T03:21:31.777Z,23.05
2022-09-28T03:22:32.007Z,23.02
2022-09-28T03:23:32.248Z,23.05
2022-09-28T03:24:32.498Z,23.05
2022-09-28T03:25:32.728Z,23.05
2022-09-28T03:26:32.968Z,23.05
2022-09-28T03:27:33.210Z,23.04
2022-09-28T03:28:33.450Z,23.04
2022-09-28T03:29:33.689Z,23.05
2022-09-28T03:30:33.939Z,23.05
2022-09-28T03:31:34.201Z,23.05
2022-09-28T03:32:34.531Z,23.04
2022-09-28T03:33:34.730Z,23.05
2022-09-28T03:34:34.970Z,23.05
2022-09-28T03:35:35.206Z,23.05
2022-09-28T03:36:35.441Z,23.05
2022-09-28T03:37:35.682Z,23.05
2022-09-28T03:38:35.922Z,23.05
2022-09-28T03:39:36.174Z,23.05
2022-09-28T03:40:36.432Z,23.05
2022-09-28T03:41:36.663Z,23.05
2022-09-28T03:42:36.923Z,23.05
2022-09-28T03:43:37.185Z,23.05
2022-09-28T03:44:37.422Z,23.05
2022-09-28T03:45:37.692Z,23.05
2022-09-28T03:46:37.915Z,23.04
2022-09-28T03:47:38.154Z,23.05
2022-09-28T03:48:38.393Z,23.05
2022-09-28T03:49:38.639Z,23.04
2022-09-28T03:50:38.875Z,23.05
2022-09-28T03:51:39.106Z,23.05
2022-09-28T03:52:39.357Z,23.04
2022-09-28T03:53:39.596Z,23.04
2022-09-28T03:54:39.836Z,23.05
2022-09-28T03:55:40.087Z,23.04
2022-09-28T03:56:40.326Z,23.04
2022-09-28T03:57:40.558Z,23.05
2022-09-28T03:58:40.804Z,23.04
2022-09-28T03:59:41.048Z,23.04
2022-09-28T04:00:41.348Z,23.04
2022-09-28T04:01:41.735Z,23.04
2022-09-28T04:02:41.849Z,23.05
2022-09-28T04:03:42.080Z,23.04
2022-09-28T04:04:42.330Z,23.04
2022-09-28T04:05:42.570Z,23.04
2022-09-28T04:06:42.809Z,23.04
2022-09-28T04:07:43.050Z,23.04
2022-09-28T04:08:43.401Z,23.05
2022-09-28T04:09:43.562Z,23.04
2022-09-28T04:10:43.801Z,23.04
2022-09-28T04:12:02.902Z,23.04
2022-09-28T04:12:45.311Z,23.04
2022-09-28T04:13:44.610Z,23.04
2022-09-28T04:14:44.852Z,23.04
2022-09-28T04:15:45.083Z,23.04
2022-09-28T04:16:45.425Z,23.04
2022-09-28T04:17:45.651Z,23.02
2022-09-28T04:18:45.884Z,23.02
2022-09-28T04:19:46.126Z,23.02
2022-09-28T04:20:46.374Z,23.04
2022-09-28T04:21:46.606Z,23.04
2022-09-28T04:22:46.845Z,23.04
2022-09-28T04:23:47.096Z,23.02
2022-09-28T04:24:47.335Z,23.04
2022-09-28T04:25:47.566Z,23.04
2022-09-28T04:26:47.816Z,23.02
2022-09-28T04:27:48.048Z,23.02
2022-09-28T04:28:48.287Z,23.04
2022-09-28T04:29:48.537Z,23.02
2022-09-28T04:30:48.767Z,23.02
2022-09-28T04:31:50.041Z,23.01
2022-09-28T04:32:49.237Z,23.02
2022-09-28T04:33:49.470Z,23.02
2022-09-28T04:34:49.717Z,23.02
2022-09-28T04:35:49.951Z,23.02
2022-09-28T04:36:50.193Z,23.04
2022-09-28T04:37:50.439Z,23.01
2022-09-28T04:38:53.542Z,23.01
2022-09-28T04:39:50.922Z,23.01
2022-09-28T04:40:51.209Z,23.02
2022-09-28T04:41:51.456Z,23.02
2022-09-28T04:42:51.692Z,23.01
2022-09-28T04:43:51.931Z,23.01
2022-09-28T04:44:52.179Z,23.02
2022-09-28T04:51:28.594Z,23.01
2022-09-28T04:52:35.830Z,23.01
2022-09-28T04:53:29.052Z,23.01
2022-09-28T04:54:29.283Z,23.01
2022-09-28T04:55:29.512Z,23.01
2022-09-28T04:56:29.803Z,23.01
2022-09-28T04:57:30.033Z,23.01
2022-09-28T04:58:30.264Z,23.01
2022-09-28T04:59:30.504Z,23.00
2022-09-28T05:00:30.734Z,23.01
2022-09-28T05:01:31.084Z,23.01
2022-09-28T05:02:31.377Z,23.01
2022-09-28T05:03:31.625Z,23.00
2022-09-28T05:04:31.865Z,23.00
2022-09-28T05:05:32.113Z,23.00
2022-09-28T05:06:32.347Z,23.00
2022-09-28T05:07:32.584Z,22.98
2022-09-28T05:08:32.819Z,23.00
2022-09-28T05:09:36.353Z,23.01
2022-09-28T05:10:34.389Z,23.00
2022-09-28T05:11:33.688Z,23.02
2022-09-28T05:12:33.928Z,23.01
2022-09-28T05:13:34.169Z,23.02
2022-09-28T05:14:34.409Z,23.04
2022-09-28T05:15:34.649Z,23.02
2022-09-28T05:16:34.955Z,23.02
2022-09-28T05:17:35.167Z,23.04
2022-09-28T05:18:35.399Z,23.04
2022-09-28T05:19:35.641Z,23.02
2022-09-28T05:20:35.871Z,23.04
2022-09-28T05:21:36.111Z,23.02
2022-09-28T05:22:36.351Z,23.04
2022-09-28T05:23:36.581Z,23.04
2022-09-28T05:24:36.822Z,23.04
2022-09-28T05:25:37.053Z,23.04
2022-09-28T05:26:37.282Z,23.04
2022-09-28T05:27:37.522Z,23.04
2022-09-28T05:28:37.767Z,23.04
2022-09-28T05:29:37.992Z,23.05
2022-09-28T05:30:38.225Z,23.05
2022-09-28T05:31:38.518Z,23.04
2022-09-28T05:32:38.753Z,23.05
2022-09-28T05:33:38.996Z,23.04
2022-09-28T05:34:39.255Z,23.04
2022-09-28T05:35:39.495Z,23.04
2022-09-28T05:36:39.735Z,23.04
2022-09-28T05:37:39.966Z,23.05
2022-09-28T05:38:40.201Z,23.07
2022-09-28T05:39:40.437Z,23.09
2022-09-28T05:40:40.737Z,23.07
2022-09-28T05:41:40.977Z,23.07
2022-09-28T05:42:41.208Z,23.10
2022-09-28T05:43:41.448Z,23.10
2022-09-28T05:44:41.687Z,23.10
2022-09-28T05:45:41.990Z,23.12
2022-09-28T05:46:42.199Z,23.12
2022-09-28T05:47:42.438Z,23.10
2022-09-28T05:48:42.670Z,23.12
2022-09-28T05:49:42.909Z,23.12
2022-09-28T05:50:43.141Z,23.13
2022-09-28T05:51:43.389Z,23.15
2022-09-28T05:52:43.641Z,23.19
2022-09-28T05:53:43.891Z,23.19
2022-09-28T05:54:44.131Z,23.19
2022-09-28T05:55:44.371Z,23.17
2022-09-28T05:56:44.610Z,23.19
2022-09-28T05:57:44.841Z,23.19
2022-09-28T05:58:45.081Z,23.19
2022-09-28T05:59:45.333Z,23.17
2022-09-28T06:00:45.615Z,23.19
2022-09-28T06:01:45.857Z,23.17
2022-09-28T06:02:46.147Z,23.19
2022-09-28T06:03:46.423Z,23.19
2022-09-28T06:04:46.673Z,23.17
2022-09-28T06:05:46.924Z,23.20
2022-09-28T06:06:47.174Z,23.17
2022-09-28T06:07:47.426Z,23.19
2022-09-28T06:08:47.674Z,23.20
2022-09-28T06:09:47.929Z,23.20
2022-09-28T06:10:48.185Z,23.19
2022-09-28T06:11:55.450Z,23.19
2022-09-28T06:12:48.690Z,23.20
2022-09-28T06:13:48.937Z,23.19
2022-09-28T06:14:49.193Z,23.19
2022-09-28T06:15:49.451Z,23.19
2022-09-28T06:16:49.724Z,23.19
2022-09-28T06:17:49.962Z,23.17
2022-09-28T06:18:50.213Z,23.19
2022-09-28T06:19:50.452Z,23.16
2022-09-28T06:20:50.700Z,23.17
2022-09-28T06:21:50.941Z,23.16
2022-09-28T06:22:51.173Z,23.15
2022-09-28T06:23:52.393Z,23.16
2022-09-28T06:24:51.743Z,23.15
2022-09-28T06:25:52.054Z,23.15
2022-09-28T06:26:52.304Z,23.15
2022-09-28T06:27:52.535Z,23.13
2022-09-28T06:28:52.774Z,23.12
2022-09-28T06:29:53.065Z,23.12
2022-09-28T06:30:53.340Z,23.10
2022-09-28T06:31:53.627Z,23.09
2022-09-28T06:32:53.879Z,22.95
2022-09-28T06:33:54.126Z,22.76
2022-09-28T06:34:56.460Z,22.51
2022-09-28T06:35:54.666Z,22.30
2022-09-28T06:36:54.917Z,22.07
2022-09-28T06:37:55.167Z,21.90
2022-09-28T06:38:55.467Z,21.74
2022-09-28T06:39:55.718Z,21.67
2022-09-28T06:40:56.026Z,21.65
2022-09-28T06:41:56.277Z,21.62
2022-09-28T06:42:56.529Z,21.64
2022-09-28T06:43:56.780Z,21.67
2022-09-28T06:44:57.029Z,21.69
2022-09-28T06:45:57.324Z,21.71
2022-09-28T06:46:57.531Z,21.75
2022-09-28T06:47:57.791Z,21.82
2022-09-28T06:48:58.042Z,21.84
2022-09-28T06:49:58.311Z,21.90
2022-09-28T06:50:58.562Z,21.94
2022-09-28T06:51:58.811Z,22.02
2022-09-28T06:53:00.012Z,22.06
2022-09-28T06:53:59.312Z,22.09
2022-09-28T06:54:59.572Z,22.14
2022-09-28T06:55:59.825Z,22.17
2022-09-28T06:57:00.187Z,22.21
2022-09-28T06:58:00.315Z,22.25
2022-09-28T06:59:00.565Z,22.28
2022-09-28T07:00:00.834Z,22.31
2022-09-28T07:01:01.163Z,22.35
2022-09-28T07:02:01.469Z,22.37
2022-09-28T07:03:01.715Z,22.40
2022-09-28T07:04:01.993Z,22.43
2022-09-28T07:05:02.227Z,22.47
2022-09-28T07:06:02.480Z,22.51
2022-09-28T07:07:02.727Z,22.54
2022-09-28T07:08:02.997Z,22.57
2022-09-28T07:09:18.058Z,22.60
2022-09-28T07:10:04.497Z,22.62
2022-09-28T07:11:03.817Z,22.65
2022-09-28T07:12:04.080Z,22.67
2022-09-28T07:13:04.374Z,22.70
2022-09-28T07:14:04.596Z,22.75
2022-09-28T07:15:04.849Z,22.76
2022-09-28T07:16:05.131Z,22.79
2022-09-28T07:17:13.685Z,22.80
2022-09-28T07:18:06.666Z,22.83
2022-09-28T07:19:05.860Z,22.86
2022-09-28T07:20:17.125Z,22.88
2022-09-28T07:21:08.186Z,22.91
2022-09-28T07:22:06.643Z,22.92
2022-09-28T07:23:16.937Z,22.95
2022-09-28T07:24:08.119Z,22.97
2022-09-28T07:25:07.441Z,22.98
2022-09-28T07:26:09.258Z,23.01
2022-09-28T07:27:07.942Z,23.02
2022-09-28T07:28:08.193Z,23.07
2022-09-28T07:29:08.442Z,23.09
2022-09-28T07:30:08.693Z,23.10
2022-09-28T07:31:08.985Z,23.15
2022-09-28T07:32:09.263Z,23.15
2022-09-28T07:33:09.525Z,23.17
2022-09-28T07:34:09.774Z,23.17
2022-09-28T07:35:10.035Z,23.20
2022-09-28T07:36:10.275Z,23.19
2022-09-28T07:37:10.538Z,23.22
2022-09-28T07:38:10.812Z,23.22
2022-09-28T07:39:11.096Z,23.23
2022-09-28T07:40:11.382Z,23.25
2022-09-28T07:41:11.627Z,23.25
2022-09-28T07:42:11.870Z,23.28
2022-09-28T07:43:12.107Z,23.27
2022-09-28T07:44:12.357Z,23.28
2022-09-28T07:45:12.629Z,23.31
2022-09-28T07:46:12.954Z,23.32
2022-09-28T07:47:13.199Z,23.33
2022-09-28T07:48:13.451Z,23.35
2022-09-28T07:49:13.737Z,23.33
2022-09-28T07:50:14.020Z,23.36
2022-09-28T07:51:14.269Z,23.38
2022-09-28T07:52:14.509Z,23.40
2022-09-28T07:53:14.770Z,23.39
2022-09-28T07:54:15.022Z,23.39
2022-09-28T07:55:15.280Z,23.42
2022-09-28T07:56:15.541Z,23.42
2022-09-28T07:57:15.822Z,23.40
2022-09-28T07:58:16.075Z,23.40
2022-09-28T07:59:16.330Z,23.43
2022-09-28T08:00:16.590Z,23.42
2022-09-28T08:01:16.904Z,23.43
2022-09-28T08:02:17.206Z,23.43
2022-09-28T08:03:17.472Z,23.46
2022-09-28T08:04:17.732Z,23.46
2022-09-28T08:05:17.993Z,23.48
2022-09-28T08:06:18.243Z,23.48
2022-09-28T08:07:22.806Z,23.50
2022-09-28T08:08:19.755Z,23.48
2022-09-28T08:09:19.195Z,23.50
2022-09-28T08:10:01.073Z,23.50
2022-09-28T08:11:01.325Z,23.53
2022-09-28T08:12:01.566Z,23.54
2022-09-28T08:13:02.878Z,23.55
2022-09-28T08:14:02.162Z,23.55
2022-09-28T08:15:02.414Z,23.54
2022-09-28T08:16:02.665Z,23.55
2022-09-28T08:17:02.915Z,23.54
2022-09-28T08:18:03.233Z,23.54
2022-09-28T08:19:03.466Z,23.51
2022-09-28T08:20:03.717Z,23.40
2022-09-28T08:21:03.975Z,23.25
2022-09-28T08:22:04.219Z,23.05
2022-09-28T08:23:04.467Z,22.83
2022-09-28T08:24:04.717Z,22.64
2022-09-28T08:25:04.968Z,22.42
2022-09-28T08:26:05.228Z,22.22
2022-09-28T08:27:05.479Z,22.12
2022-09-28T08:28:05.736Z,22.09
2022-09-28T08:29:05.988Z,22.09
2022-09-28T08:30:06.239Z,22.10
2022-09-28T08:31:06.565Z,22.15
2022-09-28T08:32:06.810Z,22.21
2022-09-28T08:33:07.062Z,22.25
2022-09-28T08:34:07.311Z,22.30
2022-09-28T08:35:07.561Z,22.36
2022-09-28T08:36:07.831Z,22.40
2022-09-28T08:37:08.081Z,22.46
2022-09-28T08:38:08.372Z,22.54
2022-09-28T08:39:08.622Z,22.57
2022-09-28T08:40:08.883Z,22.62
2022-09-28T08:41:09.133Z,22.67
2022-09-28T08:42:09.393Z,22.70
2022-09-28T08:43:09.663Z,22.76
2022-09-28T08:44:09.946Z,22.80
2022-09-28T08:45:10.215Z,22.85
2022-09-28T08:46:10.534Z,22.90
2022-09-28T08:47:10.764Z,22.94
2022-09-28T08:48:11.015Z,22.97
2022-09-28T08:49:30.833Z,23.00
2022-09-28T08:50:12.515Z,23.02
2022-09-28T08:51:11.826Z,23.05
2022-09-28T08:52:12.088Z,23.07
2022-09-28T08:53:12.345Z,23.12
2022-09-28T08:54:12.668Z,23.15
2022-09-28T08:55:12.916Z,23.16
2022-09-28T08:56:13.177Z,23.20
2022-09-28T08:57:13.427Z,23.20
2022-09-28T08:58:13.678Z,23.22
2022-09-28T08:59:13.928Z,23.25
2022-09-28T09:00:14.187Z,23.25
2022-09-28T09:01:14.482Z,23.28
2022-09-28T09:02:14.828Z,23.28
2022-09-28T09:03:15.109Z,23.31
2022-09-28T09:04:15.406Z,23.32
2022-09-28T09:05:15.640Z,23.35
2022-09-28T09:06:18.483Z,23.35
2022-09-28T09:07:16.170Z,23.36
2022-09-28T09:08:16.429Z,23.38
2022-09-28T09:09:16.678Z,23.39
2022-09-28T09:10:16.922Z,23.40
2022-09-28T09:11:17.182Z,23.42
2022-09-28T09:12:17.442Z,23.43
2022-09-28T09:13:17.684Z,23.46
2022-09-28T09:14:18.109Z,23.47
2022-09-28T09:15:18.244Z,23.47
2022-09-28T09:16:18.573Z,23.48
2022-09-28T09:17:18.815Z,23.48
2022-09-28T09:18:20.038Z,23.50
2022-09-28T09:19:19.294Z,23.50
2022-09-28T09:20:19.584Z,23.51
2022-09-28T09:21:19.835Z,23.51
2022-09-28T09:22:20.085Z,23.53
2022-09-28T09:23:20.361Z,23.54
2022-09-28T09:24:20.595Z,23.54
2022-09-28T09:25:20.849Z,23.54
2022-09-28T09:26:25.125Z,23.55
2022-09-28T09:27:22.327Z,23.57
2022-09-28T09:28:21.647Z,23.57
2022-09-28T09:29:21.897Z,23.58
2022-09-28T09:30:22.138Z,23.60
2022-09-28T09:31:22.948Z,23.60
2022-09-28T09:32:22.728Z,23.60
2022-09-28T09:33:22.998Z,23.61
2022-09-28T09:34:23.288Z,23.63
2022-09-28T09:35:27.586Z,23.63
2022-09-28T09:36:24.768Z,23.63
2022-09-28T09:37:24.069Z,23.63
2022-09-28T09:38:24.328Z,23.65
2022-09-28T09:39:24.570Z,23.65
2022-09-28T09:40:24.894Z,23.66
2022-09-28T09:41:25.142Z,23.66
2022-09-28T09:42:25.401Z,23.68
2022-09-28T09:43:29.292Z,23.69
2022-09-28T09:44:26.881Z,23.68
2022-09-28T09:45:26.191Z,23.69
2022-09-28T09:46:26.559Z,23.68
2022-09-28T09:47:26.702Z,23.69
2022-09-28T09:48:26.953Z,23.69
2022-09-28T09:49:27.204Z,23.69
2022-09-28T09:50:27.463Z,23.69
2022-09-28T09:51:27.705Z,23.70
2022-09-28T09:52:28.009Z,23.70
2022-09-28T09:53:28.314Z,23.72
2022-09-28T09:54:28.567Z,23.72
2022-09-28T09:55:30.154Z,23.73
2022-09-28T09:56:29.076Z,23.75
2022-09-28T09:57:29.337Z,23.73
2022-09-28T09:58:29.586Z,23.75
2022-09-28T09:59:29.838Z,23.73
2022-09-28T10:00:30.094Z,23.75
2022-09-28T10:01:30.403Z,23.76
2022-09-28T10:02:30.763Z,23.75
2022-09-28T10:03:30.958Z,23.75
2022-09-28T10:04:31.227Z,23.76
2022-09-28T10:05:31.468Z,23.75
2022-09-28T10:06:31.709Z,23.75
2022-09-28T10:07:31.964Z,23.76
2022-09-28T10:08:32.209Z,23.75
2022-09-28T10:09:32.459Z,23.76
2022-09-28T10:10:32.710Z,23.75
